createdAt,value
2023-02-18T00:01:38.862Z,11.27
2023-02-18T00:04:08.132Z,14.33
2023-02-18T00:06:36.571Z,14.83
2023-02-18T00:09:05.059Z,14.13
2023-02-18T00:11:33.960Z,13.33
2023-02-18T00:14:04.585Z,12.00
2023-02-18T00:16:32.790Z,12.33
2023-02-18T00:19:01.753Z,11.50
2023-02-18T00:21:31.352Z,13.63
2023-02-18T00:23:59.150Z,12.57
2023-02-18T00:26:27.184Z,16.30
2023-02-18T00:28:55.439Z,12.10
2023-02-18T00:31:24.864Z,13.23
2023-02-18T00:33:52.915Z,8.70
2023-02-18T00:36:21.604Z,11.10
2023-02-18T00:38:51.632Z,13.23
2023-02-18T00:41:20.116Z,12.13
2023-02-18T00:43:47.908Z,15.43
2023-02-18T00:46:16.108Z,16.53
2023-02-18T00:48:43.887Z,13.13
2023-02-18T00:51:11.998Z,15.00
2023-02-18T00:53:40.496Z,12.03
2023-02-18T00:56:10.310Z,11.63
2023-02-18T00:58:38.347Z,9.80
2023-02-18T01:01:07.656Z,13.10
2023-02-18T01:03:35.977Z,14.17
2023-02-18T01:06:04.009Z,13.77
2023-02-18T01:08:31.824Z,15.40
2023-02-18T01:10:59.851Z,13.83
2023-02-18T01:13:29.835Z,13.90
2023-02-18T01:15:57.612Z,15.17
2023-02-18T01:18:26.042Z,14.33
2023-02-18T01:20:54.297Z,16.97
2023-02-18T01:23:22.020Z,14.07
2023-02-18T01:25:50.321Z,13.43
2023-02-18T01:28:19.038Z,13.33
2023-02-18T01:30:48.302Z,16.77
2023-02-18T01:33:16.071Z,15.00
2023-02-18T01:35:43.899Z,19.97
2023-02-18T01:38:11.608Z,15.10
2023-02-18T01:40:46.536Z,11.70
2023-02-18T01:43:14.623Z,14.83
2023-02-18T01:45:56.505Z,12.87
2023-02-18T01:48:26.113Z,17.03
2023-02-18T01:50:57.812Z,18.50
2023-02-18T01:53:28.002Z,17.17
2023-02-18T01:55:56.153Z,17.40
2023-02-18T01:58:25.681Z,18.53
2023-02-18T02:00:54.918Z,17.80
2023-02-18T02:03:22.953Z,22.47
2023-02-18T02:05:51.059Z,21.30
2023-02-18T02:08:20.031Z,21.27
2023-02-18T02:10:57.602Z,17.37
2023-02-18T02:13:30.947Z,13.80
2023-02-18T02:16:04.588Z,14.93
2023-02-18T02:18:38.260Z,15.03
2023-02-18T02:21:19.037Z,13.93
2023-02-18T02:23:59.216Z,16.13
2023-02-18T02:26:38.813Z,17.10
2023-02-18T02:29:18.966Z,12.53
2023-02-18T02:32:01.923Z,15.87
2023-02-18T02:34:55.290Z,14.53
2023-02-18T02:37:26.986Z,12.33
2023-02-18T02:39:59.063Z,11.27
2023-02-18T02:42:31.083Z,12.83
2023-02-18T02:45:01.861Z,13.47
2023-02-18T02:47:34.125Z,12.97
2023-02-18T02:50:05.158Z,14.00
2023-02-18T02:52:33.953Z,15.00
2023-02-18T02:55:01.720Z,13.30
2023-02-18T02:57:49.847Z,15.67
2023-02-18T03:00:19.339Z,11.73
2023-02-18T03:03:04.969Z,19.30
2023-02-18T03:05:38.786Z,18.17
2023-02-18T03:08:11.696Z,13.20
2023-02-18T03:10:47.276Z,11.73
2023-02-18T03:13:19.700Z,14.57
2023-02-18T03:15:51.238Z,21.23
2023-02-18T03:18:21.741Z,16.87
2023-02-18T03:20:55.049Z,16.27
2023-02-18T03:23:28.275Z,19.37
2023-02-18T03:25:57.366Z,20.33
2023-02-18T03:28:25.895Z,23.30
2023-02-18T03:30:57.047Z,34.90
2023-02-18T03:33:27.378Z,27.57
2023-02-18T03:35:57.599Z,23.63
2023-02-18T03:38:27.132Z,29.37
2023-02-18T03:40:55.100Z,26.40
2023-02-18T03:43:22.926Z,22.87
2023-02-18T03:45:51.290Z,28.10
2023-02-18T03:48:19.519Z,31.17
2023-02-18T03:50:49.531Z,30.93
2023-02-18T03:53:18.787Z,25.47
2023-02-18T03:55:46.531Z,28.53
2023-02-18T03:58:14.258Z,24.13
2023-02-18T04:00:41.889Z,25.50
2023-02-18T04:03:09.635Z,26.17
2023-02-18T04:05:38.130Z,26.47
2023-02-18T04:08:06.339Z,23.03
2023-02-18T04:10:35.855Z,21.10
2023-02-18T04:13:03.883Z,18.43
2023-02-18T04:15:31.686Z,18.50
2023-02-18T04:18:00.729Z,19.63
2023-02-18T04:20:28.665Z,21.83
2023-02-18T04:22:56.416Z,16.33
2023-02-18T04:25:24.435Z,15.43
2023-02-18T04:27:56.192Z,14.10
2023-02-18T04:30:24.382Z,14.63
2023-02-18T04:32:52.267Z,18.00
2023-02-18T04:35:21.559Z,16.23
2023-02-18T04:37:49.704Z,18.13
2023-02-18T04:40:17.828Z,14.87
2023-02-18T04:42:48.189Z,14.57
2023-02-18T04:45:17.749Z,15.00
2023-02-18T04:47:45.606Z,13.20
2023-02-18T04:50:13.447Z,11.70
2023-02-18T04:52:41.150Z,15.37
2023-02-18T04:55:09.092Z,14.23
2023-02-18T04:57:36.846Z,16.77
2023-02-18T05:00:06.959Z,13.87
2023-02-18T05:02:36.532Z,15.47
2023-02-18T05:05:06.970Z,15.00
2023-02-18T05:07:34.989Z,19.03
2023-02-18T05:10:02.782Z,16.60
2023-02-18T05:12:30.777Z,16.73
2023-02-18T05:14:58.865Z,14.47
2023-02-18T05:17:27.122Z,20.50
2023-02-18T05:19:56.363Z,18.27
2023-02-18T05:22:24.206Z,17.03
2023-02-18T05:24:52.051Z,17.27
2023-02-18T05:27:19.841Z,16.03
2023-02-18T05:29:47.825Z,15.70
2023-02-18T05:32:15.445Z,16.60
2023-02-18T05:34:43.319Z,11.23
2023-02-18T05:37:14.033Z,16.17
2023-02-18T05:39:42.180Z,20.20
2023-02-18T05:42:10.934Z,15.07
2023-02-18T05:44:38.669Z,17.40
2023-02-18T05:47:11.284Z,12.00
2023-02-18T05:49:40.677Z,14.23
2023-02-18T05:52:08.741Z,13.53
2023-02-18T05:54:38.798Z,16.63
2023-02-18T05:57:06.826Z,11.37
2023-02-18T05:59:34.860Z,12.50
2023-02-18T06:02:02.530Z,14.80
2023-02-18T06:04:30.412Z,14.17
2023-02-18T06:07:01.850Z,14.50
2023-02-18T06:09:29.585Z,19.47
2023-02-18T06:11:58.759Z,15.00
2023-02-18T06:14:26.498Z,15.37
2023-02-18T06:16:54.376Z,16.40
2023-02-18T06:19:22.088Z,14.77
2023-02-18T06:21:49.859Z,22.47
2023-02-18T06:24:17.704Z,22.37
2023-02-18T06:26:45.492Z,24.67
2023-02-18T06:29:14.996Z,27.87
2023-02-18T06:31:42.848Z,25.90
2023-02-18T06:34:10.576Z,24.63
2023-02-18T06:36:38.473Z,26.93
2023-02-18T06:39:08.346Z,27.10
2023-02-18T06:41:37.428Z,29.67
2023-02-18T06:44:05.630Z,33.13
2023-02-18T06:46:34.823Z,30.70
2023-02-18T06:49:03.082Z,27.40
2023-02-18T06:51:31.542Z,25.53
2023-02-18T06:53:59.222Z,23.07
2023-02-18T06:56:30.109Z,19.83
2023-02-18T06:58:58.764Z,23.33
2023-02-18T07:01:26.472Z,21.43
2023-02-18T07:03:56.019Z,18.07
2023-02-18T07:06:24.056Z,22.33
2023-02-18T07:08:51.822Z,19.57
2023-02-18T07:11:21.368Z,17.80
2023-02-18T07:13:49.041Z,19.63
2023-02-18T07:16:16.850Z,17.63
2023-02-18T07:18:44.597Z,21.97
2023-02-18T07:21:13.843Z,25.67
2023-02-18T07:23:41.860Z,15.13
2023-02-18T07:26:11.162Z,20.00
2023-02-18T07:28:39.010Z,17.77
2023-02-18T07:31:07.582Z,15.77
2023-02-18T07:33:37.061Z,19.13
2023-02-18T07:36:05.121Z,17.23
2023-02-18T07:38:34.435Z,19.37
2023-02-18T07:41:02.371Z,31.23
2023-02-18T07:43:30.228Z,19.53
2023-02-18T07:45:58.140Z,21.47
2023-02-18T07:48:26.907Z,20.73
2023-02-18T07:50:54.576Z,20.73
2023-02-18T07:53:22.524Z,22.53
2023-02-18T07:55:51.946Z,29.70
2023-02-18T07:58:20.571Z,21.00
2023-02-18T08:00:53.387Z,16.67
2023-02-18T08:03:21.942Z,16.33
2023-02-18T08:05:50.278Z,18.37
2023-02-18T08:08:20.672Z,18.87
2023-02-18T08:10:48.992Z,26.10
2023-02-18T08:13:20.444Z,17.57
2023-02-18T08:15:48.181Z,19.83
2023-02-18T08:18:17.386Z,20.07
2023-02-18T08:20:45.347Z,19.83
2023-02-18T08:23:13.493Z,16.07
2023-02-18T08:25:42.231Z,15.97
2023-02-18T08:28:11.392Z,20.87
2023-02-18T08:30:40.539Z,18.83
2023-02-18T08:33:08.288Z,16.27
2023-02-18T08:35:36.279Z,16.77
2023-02-18T08:38:03.920Z,23.47
2023-02-18T08:40:31.663Z,19.33
2023-02-18T08:42:59.608Z,17.97
2023-02-18T08:45:27.723Z,20.57
2023-02-18T08:48:18.330Z,21.33
2023-02-18T08:50:44.927Z,34.57
2023-02-18T08:53:12.661Z,14.47
2023-02-18T08:55:42.011Z,22.10
2023-02-18T08:58:11.627Z,19.50
2023-02-18T09:00:40.812Z,24.40
2023-02-18T09:03:11.910Z,19.63
2023-02-18T09:05:40.719Z,25.13
2023-02-18T09:08:08.755Z,21.67
2023-02-18T09:10:37.401Z,19.77
2023-02-18T09:13:05.399Z,15.90
2023-02-18T09:15:35.477Z,17.27
2023-02-18T09:18:03.278Z,16.80
2023-02-18T09:20:32.356Z,15.17
2023-02-18T09:23:01.057Z,16.87
2023-02-18T09:25:28.951Z,16.80
2023-02-18T09:27:57.019Z,29.63
2023-02-18T09:30:25.222Z,17.00
2023-02-18T09:32:53.018Z,17.30
2023-02-18T09:35:20.654Z,20.47
2023-02-18T09:37:49.948Z,17.37
2023-02-18T09:40:27.533Z,17.67
2023-02-18T09:42:56.233Z,20.97
2023-02-18T09:45:25.184Z,18.17
2023-02-18T09:47:53.421Z,22.60
2023-02-18T09:50:22.362Z,16.57
2023-02-18T09:52:52.046Z,20.33
2023-02-18T09:55:22.140Z,20.47
2023-02-18T09:57:51.183Z,23.03
2023-02-18T10:00:20.851Z,18.20
2023-02-18T10:02:52.136Z,20.90
2023-02-18T10:05:20.218Z,20.20
2023-02-18T10:07:50.040Z,14.73
2023-02-18T10:10:19.011Z,23.17
2023-02-18T10:12:47.994Z,22.10
2023-02-18T10:15:21.295Z,20.83
2023-02-18T10:17:49.470Z,23.00
2023-02-18T10:20:18.317Z,20.87
2023-02-18T10:22:46.508Z,17.70
2023-02-18T10:25:18.608Z,17.20
2023-02-18T10:27:47.526Z,18.03
2023-02-18T10:30:23.822Z,20.60
2023-02-18T10:32:54.261Z,19.73
2023-02-18T10:35:25.013Z,20.37
2023-02-18T10:38:02.556Z,15.67
2023-02-18T10:40:37.092Z,13.07
2023-02-18T10:43:09.529Z,17.67
2023-02-18T10:45:44.712Z,18.43
2023-02-18T10:48:24.490Z,20.10
2023-02-18T10:50:52.316Z,16.57
2023-02-18T10:53:26.065Z,15.90
2023-02-18T10:55:54.615Z,14.80
2023-02-18T10:58:27.367Z,18.33
2023-02-18T11:00:57.439Z,15.03
2023-02-18T11:03:26.058Z,13.87
2023-02-18T11:05:56.062Z,21.30
2023-02-18T11:08:26.233Z,18.10
2023-02-18T11:10:57.445Z,14.27
2023-02-18T11:13:27.402Z,23.07
2023-02-18T11:15:58.547Z,12.37
2023-02-18T11:18:29.835Z,13.70
2023-02-18T11:20:59.620Z,6.33
2023-02-18T11:23:28.405Z,12.20
2023-02-18T11:26:00.866Z,12.97
2023-02-18T11:28:31.107Z,5.97
2023-02-18T11:31:01.763Z,7.30
2023-02-18T11:33:33.498Z,14.03
2023-02-18T11:36:07.453Z,6.43
2023-02-18T11:38:37.093Z,9.40
2023-02-18T11:41:09.090Z,5.57
2023-02-18T11:43:37.945Z,8.33
2023-02-18T11:46:14.618Z,4.77
2023-02-18T11:48:42.527Z,4.77
2023-02-18T11:51:15.505Z,5.80
2023-02-18T11:53:54.826Z,6.77
2023-02-18T11:56:22.926Z,3.73
2023-02-18T11:58:51.568Z,5.63
2023-02-18T12:01:28.913Z,6.10
2023-02-18T12:03:58.099Z,5.70
2023-02-18T12:06:30.336Z,6.00
2023-02-18T12:09:00.473Z,5.17
2023-02-18T12:11:29.899Z,5.57
2023-02-18T12:14:00.178Z,6.30
2023-02-18T12:16:36.044Z,5.30
2023-02-18T12:19:10.685Z,3.77
2023-02-18T12:21:44.283Z,5.27
2023-02-18T12:24:17.265Z,9.53
2023-02-18T12:26:50.444Z,8.63
2023-02-18T12:29:23.252Z,6.33
2023-02-18T12:32:10.044Z,5.03
2023-02-18T12:34:43.039Z,5.67
2023-02-18T12:37:16.082Z,4.40
2023-02-18T12:39:56.155Z,5.40
2023-02-18T12:42:30.232Z,5.23
2023-02-18T12:45:04.229Z,4.43
2023-02-18T12:47:38.439Z,4.83
2023-02-18T12:50:24.831Z,4.70
2023-02-18T12:53:05.517Z,5.33
2023-02-18T12:55:42.381Z,6.27
2023-02-18T12:58:16.160Z,4.80
2023-02-18T13:00:56.833Z,5.17
2023-02-18T13:03:51.607Z,8.60
2023-02-18T13:06:28.187Z,4.87
2023-02-18T13:08:59.657Z,5.63
2023-02-18T13:11:33.410Z,6.23
2023-02-18T13:14:04.500Z,5.70
2023-02-18T13:16:33.096Z,5.13
2023-02-18T13:19:03.738Z,5.70
2023-02-18T13:21:32.283Z,4.30
2023-02-18T13:24:03.264Z,6.43
2023-02-18T13:26:32.619Z,3.93
2023-02-18T13:29:08.790Z,4.50
2023-02-18T13:31:40.129Z,5.93
2023-02-18T13:34:13.490Z,6.23
2023-02-18T13:36:56.164Z,8.47
2023-02-18T13:39:25.236Z,4.77
2023-02-18T13:41:53.388Z,9.07
2023-02-18T13:44:40.015Z,4.27
2023-02-18T13:47:11.144Z,5.27
2023-02-18T13:49:41.698Z,5.70
2023-02-18T13:52:20.007Z,8.03
2023-02-18T13:54:49.540Z,5.57
2023-02-18T13:57:21.031Z,8.03
2023-02-18T13:59:50.682Z,5.23
2023-02-18T14:02:31.849Z,5.70
2023-02-18T14:08:04.514Z,4.30
2023-02-18T14:10:36.505Z,4.80
2023-02-18T14:13:34.535Z,4.60
2023-02-18T14:16:02.487Z,6.73
2023-02-18T14:18:37.040Z,6.67
2023-02-18T14:21:05.904Z,3.20
2023-02-18T14:23:42.346Z,5.60
2023-02-18T14:26:11.232Z,7.50
2023-02-18T14:28:41.206Z,7.40
2023-02-18T14:31:26.187Z,6.13
2023-02-18T14:34:06.394Z,4.40
2023-02-18T14:36:38.706Z,7.13
2023-02-18T14:39:12.580Z,9.80
2023-02-18T14:41:45.419Z,7.57
2023-02-18T14:44:27.137Z,3.83
2023-02-18T14:47:08.255Z,3.10
2023-02-18T14:49:40.814Z,10.00
2023-02-18T14:52:13.414Z,4.73
2023-02-18T14:54:42.946Z,6.43
2023-02-18T14:57:14.466Z,5.50
2023-02-18T14:59:42.622Z,6.53
2023-02-18T15:02:16.396Z,6.20
2023-02-18T15:04:46.080Z,7.93
2023-02-18T15:07:14.404Z,14.33
2023-02-18T15:09:50.929Z,6.13
2023-02-18T15:12:22.933Z,4.90
2023-02-18T15:14:53.471Z,5.73
2023-02-18T15:17:23.516Z,7.03
2023-02-18T15:19:53.542Z,5.27
2023-02-18T15:22:24.206Z,8.60
2023-02-18T15:24:54.637Z,6.40
2023-02-18T15:27:23.771Z,6.57
2023-02-18T15:29:52.066Z,5.17
2023-02-18T15:32:21.499Z,4.20
2023-02-18T15:34:51.910Z,4.30
2023-02-18T15:37:21.968Z,6.43
2023-02-18T15:39:50.503Z,7.80
2023-02-18T15:42:23.769Z,6.67
2023-02-18T15:44:52.889Z,4.80
2023-02-18T15:47:21.522Z,6.23
2023-02-18T15:49:51.661Z,6.87
2023-02-18T15:52:24.284Z,6.07
2023-02-18T15:54:52.110Z,5.57
2023-02-18T15:57:23.224Z,8.30
2023-02-18T15:59:55.387Z,7.73
2023-02-18T16:02:23.691Z,7.10
2023-02-18T16:04:53.828Z,5.50
2023-02-18T16:07:23.248Z,6.63
2023-02-18T16:09:51.047Z,12.03
2023-02-18T16:12:29.387Z,10.20
2023-02-18T16:14:57.829Z,8.53
2023-02-18T16:17:26.967Z,10.47
2023-02-18T16:20:04.514Z,12.70
2023-02-18T16:22:34.815Z,7.33
2023-02-18T16:25:08.206Z,6.03
2023-02-18T16:27:39.029Z,9.90
2023-02-18T16:30:15.691Z,5.63
2023-02-18T16:32:43.620Z,8.73
2023-02-18T16:35:12.672Z,5.63
2023-02-18T16:37:40.598Z,6.33
2023-02-18T16:40:22.396Z,5.33
2023-02-18T16:42:52.149Z,8.20
2023-02-18T16:45:20.144Z,6.47
2023-02-18T16:47:49.053Z,6.03
2023-02-18T16:50:19.374Z,5.63
2023-02-18T16:52:47.154Z,9.90
2023-02-18T16:55:18.269Z,6.73
2023-02-18T16:57:48.246Z,7.63
2023-02-18T17:00:19.785Z,6.87
2023-02-18T17:02:48.551Z,6.77
2023-02-18T17:05:26.497Z,13.37
2023-02-18T17:07:55.355Z,7.13
2023-02-18T17:10:23.100Z,8.57
2023-02-18T17:12:50.823Z,11.47
2023-02-18T17:15:26.006Z,11.13
2023-02-18T17:17:53.781Z,11.73
2023-02-18T17:20:21.517Z,16.87
2023-02-18T17:22:49.714Z,32.43
2023-02-18T17:25:19.939Z,35.27
2023-02-18T17:27:48.146Z,77.57
2023-02-18T17:30:16.310Z,66.57
2023-02-18T17:32:46.186Z,41.93
2023-02-18T17:35:17.935Z,43.40
2023-02-18T17:37:45.667Z,32.53
2023-02-18T17:40:17.109Z,29.63
2023-02-18T17:42:45.907Z,38.10
2023-02-18T17:45:18.317Z,38.57
2023-02-18T17:47:47.424Z,45.57
2023-02-18T17:50:15.497Z,45.47
2023-02-18T17:52:43.545Z,45.30
2023-02-18T17:55:22.442Z,39.50
2023-02-18T17:57:50.843Z,40.27
2023-02-18T18:00:20.464Z,41.60
2023-02-18T18:02:49.787Z,31.60
2023-02-18T18:05:19.165Z,22.40
2023-02-18T18:07:47.516Z,21.43
2023-02-18T18:10:17.751Z,13.73
2023-02-18T18:12:45.735Z,10.67
2023-02-18T18:15:37.738Z,16.03
2023-02-18T18:18:07.232Z,22.03
2023-02-18T18:20:35.543Z,21.97
2023-02-18T18:23:04.463Z,15.53
2023-02-18T18:25:35.252Z,14.77
2023-02-18T18:28:03.281Z,15.73
2023-02-18T18:30:32.028Z,13.50
2023-02-18T18:33:00.145Z,12.33
2023-02-18T18:35:30.313Z,14.80
2023-02-18T18:37:58.374Z,12.87
2023-02-18T18:40:28.153Z,16.23
2023-02-18T18:42:56.033Z,15.90
2023-02-18T18:45:24.740Z,13.17
2023-02-18T18:47:53.004Z,17.33
2023-02-18T18:50:22.558Z,15.73
2023-02-18T18:52:52.506Z,14.10
2023-02-18T18:55:25.239Z,20.27
2023-02-18T18:57:53.339Z,18.70
2023-02-18T19:00:23.460Z,25.53
2023-02-18T19:02:51.212Z,22.90
2023-02-18T19:05:23.881Z,13.80
2023-02-18T19:07:53.595Z,14.87
2023-02-18T19:10:21.542Z,15.23
2023-02-18T19:12:50.067Z,14.97
2023-02-18T19:15:19.504Z,14.73
2023-02-18T19:17:48.334Z,15.00
2023-02-18T19:20:17.695Z,10.10
2023-02-18T19:22:45.483Z,15.70
2023-02-18T19:25:14.726Z,14.67
2023-02-18T19:27:43.598Z,20.40
2023-02-18T19:30:14.073Z,14.30
2023-02-18T19:32:41.954Z,20.10
2023-02-18T19:35:10.069Z,27.30
2023-02-18T19:37:38.802Z,21.67
2023-02-18T19:40:07.528Z,22.60
2023-02-18T19:42:36.864Z,18.17
2023-02-18T19:45:04.685Z,17.67
2023-02-18T19:47:32.419Z,21.93
2023-02-18T19:50:00.836Z,16.10
2023-02-18T19:52:29.148Z,16.27
2023-02-18T19:54:57.338Z,17.93
2023-02-18T19:57:25.710Z,16.43
2023-02-18T19:59:54.943Z,16.80
2023-02-18T20:02:24.146Z,19.00
2023-02-18T20:04:52.671Z,13.70
2023-02-18T20:07:22.185Z,12.83
2023-02-18T20:09:52.345Z,15.87
2023-02-18T20:12:20.052Z,14.67
2023-02-18T20:14:47.919Z,14.33
2023-02-18T20:17:17.159Z,17.30
2023-02-18T20:19:44.958Z,17.23
2023-02-18T20:22:12.867Z,16.87
2023-02-18T20:24:41.118Z,16.00
2023-02-18T20:27:09.438Z,12.80
2023-02-18T20:29:37.547Z,13.80
2023-02-18T20:32:05.859Z,17.30
2023-02-18T20:34:34.952Z,15.67
2023-02-18T20:37:02.702Z,15.27
2023-02-18T20:39:30.392Z,18.77
2023-02-18T20:42:02.988Z,19.07
2023-02-18T20:44:35.925Z,28.60
2023-02-18T20:47:03.737Z,24.83
2023-02-18T20:49:31.530Z,23.43
2023-02-18T20:52:00.905Z,18.03
2023-02-18T20:54:29.411Z,24.00
2023-02-18T20:56:57.596Z,31.63
2023-02-18T20:59:26.258Z,19.47
2023-02-18T21:01:54.015Z,23.77
2023-02-18T21:04:21.749Z,17.83
2023-02-18T21:06:50.743Z,13.93
2023-02-18T21:09:20.009Z,18.00
2023-02-18T21:11:47.733Z,11.47
2023-02-18T21:14:15.547Z,18.67
2023-02-18T21:16:44.387Z,22.43
2023-02-18T21:19:13.544Z,14.03
2023-02-18T21:21:41.737Z,16.37
2023-02-18T21:24:09.900Z,15.63
2023-02-18T21:26:39.349Z,11.83
2023-02-18T21:29:09.002Z,16.60
2023-02-18T21:31:37.862Z,16.03
2023-02-18T21:34:06.377Z,15.17
2023-02-18T21:36:34.329Z,13.80
2023-02-18T21:39:02.902Z,12.70
2023-02-18T21:41:34.083Z,13.27
2023-02-18T21:44:03.406Z,13.43
2023-02-18T21:46:32.028Z,14.23
2023-02-18T21:49:06.048Z,13.57
2023-02-18T21:51:53.293Z,15.80
2023-02-18T21:54:24.344Z,12.07
2023-02-18T21:56:54.990Z,12.97
2023-02-18T21:59:24.569Z,14.17
2023-02-18T22:01:52.712Z,18.90
2023-02-18T22:04:20.656Z,13.27
2023-02-18T22:06:50.883Z,13.80
2023-02-18T22:09:18.559Z,15.00
2023-02-18T22:11:46.349Z,13.27
2023-02-18T22:14:14.730Z,13.87
2023-02-18T22:16:43.840Z,13.43
2023-02-18T22:19:12.129Z,15.07
2023-02-18T22:21:40.030Z,14.17
2023-02-18T22:24:08.524Z,18.13
2023-02-18T22:26:36.439Z,14.37
2023-02-18T22:29:04.639Z,14.40
2023-02-18T22:31:32.932Z,18.77
2023-02-18T22:34:02.240Z,12.20
2023-02-18T22:36:30.746Z,18.27
2023-02-18T22:38:59.078Z,17.37
2023-02-18T22:41:27.157Z,19.57
2023-02-18T22:43:55.242Z,19.03
2023-02-18T22:46:23.055Z,17.50
2023-02-18T22:48:51.213Z,15.23
2023-02-18T22:51:23.391Z,15.00
2023-02-18T22:53:51.483Z,14.23
2023-02-18T22:56:19.832Z,18.33
2023-02-18T22:58:48.327Z,15.20
2023-02-18T23:01:20.378Z,14.67
2023-02-18T23:03:48.312Z,16.70
2023-02-18T23:06:17.396Z,12.87
2023-02-18T23:08:46.560Z,12.57
2023-02-18T23:11:15.791Z,18.13
2023-02-18T23:13:44.049Z,15.57
2023-02-18T23:16:12.959Z,13.23
2023-02-18T23:18:40.740Z,11.47
2023-02-18T23:21:24.319Z,16.93
2023-02-18T23:23:54.309Z,11.67
2023-02-18T23:26:22.870Z,16.47
2023-02-18T23:28:51.378Z,14.80
2023-02-18T23:31:20.297Z,20.47
2023-02-18T23:33:49.601Z,13.13
2023-02-18T23:36:18.548Z,12.83
2023-02-18T23:38:48.724Z,13.57
2023-02-18T23:41:18.471Z,16.53
2023-02-18T23:43:46.549Z,12.33
2023-02-18T23:46:16.046Z,17.00
2023-02-18T23:48:43.960Z,15.77
2023-02-18T23:51:14.081Z,20.47
2023-02-18T23:53:42.134Z,15.53
2023-02-18T23:56:13.588Z,21.53
2023-02-18T23:58:43.256Z,21.87
